Aviation Digital Data Service (ADDS)

Output produced by METARs form (2307 UTC 15 February 2019)
found at http://www.aviationweather.gov/metar/data/
 
Forecast for: LSZS (SAMEDAN , CH)
Text: TAF LSZS 151425Z 1515/1524 VRB03KT CAVOK TX05/1515Z
Forecast period: 1500 UTC 15 February 2019 to 0000 UTC 16 February 2019
Forecast type: FROM: standard forecast or significant change
Winds: variable direction winds at 3 MPH (3 knots; 1.5 m/s)
Visibility: 6 or more miles 10+ km)
Ceiling: unknown
Clouds: missing
Weather: no significant weather forecast for this period